createdAt,value
2022-10-04T00:01:56.515Z,23.50
2022-10-04T00:04:37.213Z,23.50
2022-10-04T00:07:17.732Z,23.50
2022-10-04T00:09:55.023Z,23.50
2022-10-04T00:12:28.400Z,23.50
2022-10-04T00:14:57.955Z,23.50
2022-10-04T00:17:27.584Z,23.50
2022-10-04T00:19:56.240Z,23.50
2022-10-04T00:22:24.695Z,23.50
2022-10-04T00:25:04.473Z,23.50
2022-10-04T00:27:32.346Z,23.50
2022-10-04T00:30:19.585Z,23.50
2022-10-04T00:33:00.152Z,23.50
2022-10-04T00:35:48.343Z,23.60
2022-10-04T00:38:17.062Z,23.60
2022-10-04T00:40:49.653Z,23.60
2022-10-04T00:43:19.688Z,23.70
2022-10-04T00:46:06.194Z,23.70
2022-10-04T00:48:37.833Z,23.70
2022-10-04T00:51:17.789Z,23.70
2022-10-04T00:54:04.997Z,23.70
2022-10-04T00:56:52.657Z,23.70
2022-10-04T00:59:39.864Z,23.80
2022-10-04T01:02:15.999Z,23.80
2022-10-04T01:05:03.308Z,23.90
2022-10-04T01:07:39.773Z,23.90
2022-10-04T01:10:14.508Z,24.00
2022-10-04T01:13:01.948Z,24.00
2022-10-04T01:15:35.534Z,24.10
2022-10-04T01:18:09.409Z,24.10
2022-10-04T01:20:52.486Z,24.20
2022-10-04T01:23:32.728Z,24.20
2022-10-04T01:26:00.510Z,24.30
2022-10-04T01:28:28.390Z,24.30
2022-10-04T01:31:22.814Z,24.30
2022-10-04T01:33:50.411Z,24.30
2022-10-04T01:36:18.680Z,24.40
2022-10-04T01:38:46.483Z,24.40
2022-10-04T01:41:15.412Z,24.50
2022-10-04T01:43:43.930Z,24.50
2022-10-04T01:46:17.392Z,24.50
2022-10-04T01:48:45.539Z,24.50
2022-10-04T01:51:20.347Z,24.60
2022-10-04T01:54:01.795Z,24.60
2022-10-04T01:56:34.746Z,24.70
2022-10-04T01:59:05.077Z,24.80
2022-10-04T02:01:42.045Z,24.80
2022-10-04T02:04:19.785Z,24.90
2022-10-04T02:06:55.258Z,25.00
2022-10-04T02:09:27.218Z,25.10
2022-10-04T02:11:55.348Z,25.10
2022-10-04T02:14:25.478Z,25.20
2022-10-04T02:16:54.985Z,25.30
2022-10-04T02:19:24.730Z,25.40
2022-10-04T02:21:52.804Z,25.50
2022-10-04T02:24:21.615Z,25.50
2022-10-04T02:26:52.718Z,25.60
2022-10-04T02:29:21.172Z,25.60
2022-10-04T02:32:02.307Z,25.70
2022-10-04T02:34:30.460Z,25.70
2022-10-04T02:36:58.375Z,25.80
2022-10-04T02:39:29.811Z,25.90
2022-10-04T02:42:02.027Z,25.90
2022-10-04T02:44:42.635Z,26.00
2022-10-04T02:47:21.780Z,26.00
2022-10-04T02:49:51.018Z,26.10
2022-10-04T02:52:29.326Z,26.10
2022-10-04T02:55:05.569Z,26.20
2022-10-04T02:57:34.505Z,26.20
2022-10-04T03:00:19.634Z,26.20
2022-10-04T03:02:59.829Z,26.30
2022-10-04T03:05:27.578Z,26.30
2022-10-04T03:07:56.757Z,26.40
2022-10-04T03:10:25.171Z,26.40
2022-10-04T03:12:53.746Z,26.50
2022-10-04T03:15:21.672Z,26.40
2022-10-04T03:17:50.545Z,26.40
2022-10-04T03:20:21.577Z,26.50
2022-10-04T03:22:52.231Z,26.60
2022-10-04T03:25:22.588Z,26.60
2022-10-04T03:27:51.338Z,26.60
2022-10-04T03:30:22.443Z,26.60
2022-10-04T03:32:51.797Z,26.60
2022-10-04T03:35:31.704Z,26.60
2022-10-04T03:38:00.549Z,26.60
2022-10-04T03:40:30.944Z,26.70
2022-10-04T03:42:59.997Z,26.70
2022-10-04T03:45:30.394Z,26.70
2022-10-04T03:48:01.832Z,26.80
2022-10-04T03:50:35.051Z,26.80
2022-10-04T03:53:07.211Z,26.90
2022-10-04T03:55:36.678Z,27.00
2022-10-04T03:58:05.240Z,27.10
2022-10-04T04:00:38.687Z,27.20
2022-10-04T04:03:13.016Z,27.20
2022-10-04T04:05:51.487Z,27.40
2022-10-04T04:08:31.452Z,27.60
2022-10-04T04:11:01.663Z,27.70
2022-10-04T04:13:42.281Z,27.80
2022-10-04T04:16:11.998Z,27.80
2022-10-04T04:18:45.108Z,27.80
2022-10-04T04:21:18.528Z,27.90
2022-10-04T04:24:03.980Z,27.90
2022-10-04T04:26:35.994Z,27.80
2022-10-04T04:29:08.896Z,27.80
2022-10-04T04:31:42.392Z,27.80
2022-10-04T04:34:20.128Z,27.80
2022-10-04T04:36:47.694Z,27.80
2022-10-04T04:39:46.894Z,27.80
2022-10-04T04:42:18.446Z,27.90
2022-10-04T04:44:55.763Z,27.80
2022-10-04T04:47:44.547Z,27.80
2022-10-04T04:50:28.139Z,27.90
2022-10-04T04:52:58.353Z,27.90
2022-10-04T04:55:28.239Z,27.90
2022-10-04T04:57:56.900Z,27.90
2022-10-04T05:00:30.237Z,27.90
2022-10-04T05:02:59.454Z,28.00
2022-10-04T05:05:28.450Z,27.90
2022-10-04T05:08:08.304Z,27.90
2022-10-04T05:10:36.006Z,27.90
2022-10-04T05:13:04.623Z,27.90
2022-10-04T05:15:34.304Z,27.80
2022-10-04T05:18:03.070Z,27.80
2022-10-04T05:20:31.934Z,27.70
2022-10-04T05:22:59.734Z,27.70
2022-10-04T05:25:30.100Z,27.60
2022-10-04T05:27:57.784Z,27.60
2022-10-04T05:30:38.366Z,27.60
2022-10-04T05:33:10.666Z,27.60
2022-10-04T05:35:57.841Z,27.60
2022-10-04T05:38:44.994Z,27.60
2022-10-04T05:41:27.334Z,27.60
2022-10-04T05:43:58.030Z,27.70
2022-10-04T05:46:33.399Z,27.70
2022-10-04T05:49:14.371Z,27.70
2022-10-04T05:51:56.673Z,27.80
2022-10-04T05:54:28.683Z,27.80
2022-10-04T05:57:18.622Z,27.90
2022-10-04T06:00:08.972Z,28.00
2022-10-04T06:02:49.607Z,28.00
2022-10-04T06:05:29.416Z,28.10
2022-10-04T06:08:12.174Z,28.20
2022-10-04T06:10:53.883Z,28.20
2022-10-04T06:13:42.195Z,28.30
2022-10-04T06:16:29.340Z,28.30
2022-10-04T06:19:12.282Z,28.30
2022-10-04T06:21:58.927Z,28.40
2022-10-04T06:24:32.077Z,28.40
2022-10-04T06:27:05.958Z,28.50
2022-10-04T06:29:36.088Z,28.60
2022-10-04T06:32:20.022Z,28.60
2022-10-04T06:35:00.057Z,28.70
2022-10-04T06:37:40.086Z,28.70
2022-10-04T06:40:20.775Z,28.80
2022-10-04T06:43:07.942Z,28.90
2022-10-04T06:45:48.683Z,29.00
2022-10-04T06:48:29.415Z,29.00
2022-10-04T06:51:09.254Z,29.10
2022-10-04T06:53:56.545Z,29.20
2022-10-04T06:56:31.575Z,29.30
2022-10-04T06:59:06.388Z,29.30
2022-10-04T07:01:35.699Z,29.30
2022-10-04T07:04:16.138Z,29.40
2022-10-04T07:07:20.170Z,29.40
2022-10-04T07:09:48.113Z,29.50
2022-10-04T07:12:19.972Z,29.60
2022-10-04T07:14:51.098Z,29.50
2022-10-04T07:17:22.610Z,29.60
2022-10-04T07:19:51.365Z,29.70
2022-10-04T07:22:31.469Z,29.80
2022-10-04T07:25:19.224Z,29.90
2022-10-04T07:28:19.270Z,30.00
2022-10-04T07:30:53.355Z,30.00
2022-10-04T07:33:23.444Z,30.00
2022-10-04T07:35:57.160Z,30.00
2022-10-04T07:38:27.763Z,29.90
2022-10-04T07:41:10.730Z,29.90
2022-10-04T07:43:48.043Z,29.90
2022-10-04T07:46:28.020Z,29.80
2022-10-04T07:49:02.721Z,29.90
2022-10-04T07:51:49.931Z,29.80
2022-10-04T07:54:22.570Z,29.80
2022-10-04T07:57:00.708Z,29.80
2022-10-04T07:59:56.435Z,29.80
2022-10-04T08:02:44.244Z,29.90
2022-10-04T08:05:23.006Z,29.90
2022-10-04T08:08:00.429Z,29.90
2022-10-04T08:10:38.532Z,29.90
2022-10-04T08:13:25.696Z,29.90
2022-10-04T08:15:53.651Z,29.80
2022-10-04T08:18:34.263Z,29.90
2022-10-04T08:21:07.517Z,29.90
2022-10-04T08:23:48.033Z,29.90
2022-10-04T08:26:28.334Z,29.90
2022-10-04T08:29:27.813Z,29.90
2022-10-04T08:32:15.823Z,29.90
2022-10-04T08:35:03.075Z,29.90
2022-10-04T08:37:42.989Z,29.80
2022-10-04T08:40:24.328Z,29.80
2022-10-04T08:43:12.057Z,29.80
2022-10-04T08:45:54.650Z,29.80
2022-10-04T08:48:34.786Z,29.70
2022-10-04T08:51:14.516Z,29.60
2022-10-04T08:53:57.331Z,29.60
2022-10-04T08:56:37.392Z,29.50
2022-10-04T08:59:17.336Z,29.50
2022-10-04T09:01:57.231Z,29.40
2022-10-04T09:04:37.055Z,29.30
2022-10-04T09:07:30.131Z,29.30
2022-10-04T09:10:20.870Z,29.30
2022-10-04T09:13:02.770Z,29.20
2022-10-04T09:15:50.134Z,29.30
2022-10-04T09:18:22.771Z,29.30
2022-10-04T09:21:05.229Z,29.30
2022-10-04T09:23:55.460Z,29.30
2022-10-04T09:26:43.726Z,29.30
2022-10-04T09:29:24.455Z,29.40
2022-10-04T09:32:12.123Z,29.40
2022-10-04T09:34:59.517Z,29.50
2022-10-04T09:37:39.529Z,29.50
2022-10-04T09:40:26.740Z,29.50
2022-10-04T09:43:08.615Z,29.50
2022-10-04T09:45:49.365Z,29.50
2022-10-04T09:48:37.419Z,29.50
2022-10-04T09:51:26.639Z,29.50
2022-10-04T09:54:07.346Z,29.40
2022-10-04T09:56:47.319Z,29.40
2022-10-04T09:59:36.848Z,29.40
2022-10-04T10:02:19.036Z,29.40
2022-10-04T10:05:06.643Z,29.30
2022-10-04T10:07:48.847Z,29.30
2022-10-04T10:10:48.267Z,29.20
2022-10-04T10:13:41.300Z,29.20
2022-10-04T10:16:21.267Z,29.20
2022-10-04T10:19:05.809Z,29.10
2022-10-04T10:21:52.978Z,29.10
2022-10-04T10:24:32.731Z,29.10
2022-10-04T10:27:14.306Z,29.10
2022-10-04T10:29:54.070Z,29.00
2022-10-04T10:32:41.241Z,29.00
2022-10-04T10:35:28.516Z,29.00
2022-10-04T10:38:08.276Z,28.90
2022-10-04T10:40:54.609Z,28.90
2022-10-04T10:43:42.464Z,28.80
2022-10-04T10:46:31.564Z,28.70
2022-10-04T10:49:17.895Z,28.70
2022-10-04T10:52:01.269Z,28.60
2022-10-04T10:54:41.331Z,28.50
2022-10-04T10:57:23.320Z,28.50
2022-10-04T11:00:03.176Z,28.40
2022-10-04T11:02:49.777Z,28.40
2022-10-04T11:05:28.106Z,28.30
2022-10-04T11:07:56.785Z,28.20
2022-10-04T11:10:34.588Z,28.10
2022-10-04T11:13:22.120Z,28.10
2022-10-04T11:16:02.065Z,28.00
2022-10-04T11:18:49.190Z,28.00
2022-10-04T11:21:37.144Z,27.90
2022-10-04T11:24:15.064Z,27.90
2022-10-04T11:26:57.285Z,27.90
2022-10-04T11:29:43.029Z,27.90
2022-10-04T11:32:31.340Z,27.80
2022-10-04T11:35:12.247Z,27.80
2022-10-04T11:37:53.954Z,27.70
2022-10-04T11:40:41.329Z,27.70
2022-10-04T11:43:29.223Z,27.70
2022-10-04T11:46:13.104Z,27.60
2022-10-04T11:49:01.131Z,27.60
2022-10-04T11:51:41.103Z,27.60
2022-10-04T11:54:28.364Z,27.50
2022-10-04T11:57:16.402Z,27.50
2022-10-04T11:59:56.244Z,27.50
2022-10-04T12:02:36.809Z,27.40
2022-10-04T12:05:23.969Z,27.40
2022-10-04T12:07:57.426Z,27.40
2022-10-04T12:10:39.112Z,27.30
2022-10-04T12:13:19.727Z,27.30
2022-10-04T12:16:07.138Z,27.30
2022-10-04T12:18:47.819Z,27.30
2022-10-04T12:21:31.797Z,27.20
2022-10-04T12:24:18.899Z,27.20
2022-10-04T12:27:06.118Z,27.20
2022-10-04T12:29:53.283Z,27.20
2022-10-04T12:32:27.416Z,27.20
2022-10-04T12:35:07.272Z,27.10
2022-10-04T12:37:54.481Z,27.10
2022-10-04T12:40:38.865Z,27.00
2022-10-04T12:43:19.478Z,27.00
2022-10-04T12:45:53.040Z,27.00
2022-10-04T12:48:28.343Z,27.00
2022-10-04T12:51:08.134Z,27.00
2022-10-04T12:53:49.650Z,26.90
2022-10-04T12:56:30.111Z,26.80
2022-10-04T12:59:14.454Z,26.70
2022-10-04T13:01:57.624Z,26.60
2022-10-04T13:04:45.307Z,26.50
2022-10-04T13:07:33.290Z,26.40
2022-10-04T13:10:24.737Z,26.20
2022-10-04T13:13:12.667Z,26.10
2022-10-04T13:18:45.617Z,25.70
2022-10-04T13:21:32.775Z,25.60
2022-10-04T13:24:06.801Z,25.50
2022-10-04T13:26:47.175Z,25.40
2022-10-04T13:29:34.341Z,25.30
2022-10-04T13:32:10.235Z,25.20
2022-10-04T13:34:48.429Z,25.20
2022-10-04T13:37:36.881Z,25.20
2022-10-04T13:40:17.671Z,25.20
2022-10-04T13:42:57.397Z,25.20
2022-10-04T13:45:37.854Z,25.20
2022-10-04T13:48:21.880Z,25.20
2022-10-04T13:51:05.330Z,25.20
2022-10-04T13:53:58.090Z,25.20
2022-10-04T13:56:45.509Z,25.20
2022-10-04T13:59:26.634Z,25.20
2022-10-04T14:02:13.638Z,25.20
2022-10-04T14:05:01.072Z,25.20
2022-10-04T14:07:49.031Z,25.20
2022-10-04T14:10:24.398Z,25.20
2022-10-04T14:13:11.564Z,25.20
2022-10-04T14:15:59.505Z,25.20
2022-10-04T14:18:39.509Z,25.10
2022-10-04T14:21:19.722Z,25.10
2022-10-04T14:24:03.611Z,25.10
2022-10-04T14:26:39.374Z,25.10
2022-10-04T14:29:29.957Z,25.00
2022-10-04T14:32:09.865Z,25.00
2022-10-04T14:34:57.274Z,25.00
2022-10-04T14:37:36.994Z,25.00
2022-10-04T14:40:17.542Z,25.00
2022-10-04T14:43:00.916Z,25.00
2022-10-04T14:45:41.628Z,25.00
2022-10-04T14:48:29.756Z,24.90
2022-10-04T14:51:10.361Z,24.90
2022-10-04T14:53:43.605Z,24.90
2022-10-04T14:56:31.559Z,24.80
2022-10-04T14:59:21.570Z,24.80
2022-10-04T15:02:01.382Z,24.80
2022-10-04T15:04:41.122Z,24.70
2022-10-04T15:07:21.353Z,24.80
2022-10-04T15:10:07.246Z,24.80
2022-10-04T15:13:09.897Z,24.80
2022-10-04T15:15:38.887Z,24.80
2022-10-04T15:18:28.271Z,24.90
2022-10-04T15:20:59.479Z,24.90
2022-10-04T15:23:41.370Z,25.00
2022-10-04T15:26:21.148Z,24.90
2022-10-04T15:29:04.095Z,25.00
2022-10-04T15:31:52.205Z,25.00
2022-10-04T15:34:34.572Z,25.00
2022-10-04T15:37:15.152Z,24.90
2022-10-04T15:40:03.127Z,24.90
2022-10-04T15:42:34.569Z,24.90
2022-10-04T15:45:21.759Z,24.90
2022-10-04T15:47:57.098Z,24.90
2022-10-04T15:50:44.223Z,24.90
2022-10-04T15:53:27.227Z,24.90
2022-10-04T15:56:06.988Z,24.90
2022-10-04T15:58:52.758Z,24.90
2022-10-04T16:01:33.570Z,25.00
2022-10-04T16:04:14.791Z,25.00
2022-10-04T16:07:01.933Z,25.00
2022-10-04T16:09:42.568Z,25.00
2022-10-04T16:12:23.333Z,25.00
2022-10-04T16:14:58.985Z,25.00
2022-10-04T16:17:31.075Z,25.10
2022-10-04T16:20:06.243Z,25.00
2022-10-04T16:22:35.286Z,25.00
2022-10-04T16:25:15.852Z,25.00
2022-10-04T16:27:56.427Z,25.00
2022-10-04T16:30:30.519Z,25.10
2022-10-04T16:33:17.674Z,25.00
2022-10-04T16:35:49.432Z,25.00
2022-10-04T16:38:23.644Z,25.10
2022-10-04T16:41:11.138Z,25.00
2022-10-04T16:43:48.340Z,25.00
2022-10-04T16:46:24.249Z,25.00
2022-10-04T16:49:00.874Z,25.00
2022-10-04T16:51:41.588Z,25.00
2022-10-04T16:54:29.573Z,25.00
2022-10-04T16:57:17.502Z,25.00
2022-10-04T16:59:46.687Z,25.00
2022-10-04T17:02:28.043Z,24.90
2022-10-04T17:05:08.227Z,24.90
2022-10-04T17:07:55.363Z,24.90
2022-10-04T17:10:32.439Z,24.90
2022-10-04T17:13:13.094Z,24.90
2022-10-04T17:15:49.008Z,24.90
2022-10-04T17:18:29.679Z,24.80
2022-10-04T17:21:02.605Z,24.80
2022-10-04T17:23:50.573Z,24.80
2022-10-04T17:26:39.359Z,24.80
2022-10-04T17:29:19.092Z,24.80
2022-10-04T17:31:57.907Z,24.80
2022-10-04T17:34:34.275Z,24.80
2022-10-04T17:37:22.340Z,24.80
2022-10-04T17:39:55.487Z,24.80
2022-10-04T17:42:43.483Z,24.80
2022-10-04T17:45:23.342Z,24.80
2022-10-04T17:48:22.745Z,24.80
2022-10-04T17:51:08.946Z,24.80
2022-10-04T17:53:52.855Z,24.80
2022-10-04T17:56:33.419Z,24.70
2022-10-04T17:59:07.497Z,24.70
2022-10-04T18:01:41.382Z,24.70
2022-10-04T18:04:15.128Z,24.70
2022-10-04T18:06:48.999Z,24.60
2022-10-04T18:09:29.994Z,24.70
2022-10-04T18:12:17.229Z,24.70
2022-10-04T18:14:54.180Z,24.60
2022-10-04T18:17:34.168Z,24.60
2022-10-04T18:20:13.988Z,24.60
2022-10-04T18:22:46.948Z,24.60
2022-10-04T18:25:27.077Z,24.60
2022-10-04T18:28:15.346Z,24.60
2022-10-04T18:30:59.314Z,24.60
2022-10-04T18:33:48.636Z,24.60
2022-10-04T18:36:31.427Z,24.60
2022-10-04T18:39:01.873Z,24.60
2022-10-04T18:41:50.079Z,24.60
2022-10-04T18:44:20.491Z,24.60
2022-10-04T18:46:51.380Z,24.60
2022-10-04T18:49:28.151Z,24.50
2022-10-04T18:52:08.079Z,24.50
2022-10-04T18:54:49.587Z,24.50
2022-10-04T18:57:35.099Z,24.50
2022-10-04T19:00:31.667Z,24.50
2022-10-04T19:03:11.845Z,24.50
2022-10-04T19:05:52.973Z,24.40
2022-10-04T19:08:32.860Z,24.40
2022-10-04T19:11:13.503Z,24.40
2022-10-04T19:14:02.742Z,24.40
2022-10-04T19:16:44.103Z,24.50
2022-10-04T19:19:28.257Z,24.50
2022-10-04T19:22:11.289Z,24.40
2022-10-04T19:24:49.079Z,24.40
2022-10-04T19:27:27.434Z,24.50
2022-10-04T19:30:08.204Z,24.40
2022-10-04T19:32:48.039Z,24.40
2022-10-04T19:35:27.903Z,24.40
2022-10-04T19:38:12.242Z,24.40
2022-10-04T19:41:03.195Z,24.40
2022-10-04T19:43:50.433Z,24.30
2022-10-04T19:46:29.088Z,24.40
2022-10-04T19:48:56.861Z,24.40
2022-10-04T19:51:36.628Z,24.40
2022-10-04T19:54:14.673Z,24.40
2022-10-04T19:56:46.812Z,24.40
2022-10-04T19:59:19.060Z,24.40
2022-10-04T20:01:46.635Z,24.40
2022-10-04T20:04:35.122Z,24.40
2022-10-04T20:07:04.845Z,24.40
2022-10-04T20:09:51.638Z,24.40
2022-10-04T20:12:33.153Z,24.30
2022-10-04T20:15:15.088Z,24.30
2022-10-04T20:17:44.579Z,24.30
2022-10-04T20:20:24.351Z,24.30
2022-10-04T20:22:54.418Z,24.30
2022-10-04T20:25:34.226Z,24.30
2022-10-04T20:28:05.232Z,24.30
2022-10-04T20:30:45.823Z,24.30
2022-10-04T20:33:33.968Z,24.30
2022-10-04T20:36:07.963Z,24.30
2022-10-04T20:38:50.248Z,24.30
2022-10-04T20:41:30.529Z,24.30
2022-10-04T20:44:04.943Z,24.30
2022-10-04T20:46:39.363Z,24.30
2022-10-04T20:49:17.171Z,24.30
2022-10-04T20:51:52.087Z,24.30
2022-10-04T20:54:21.285Z,24.30
2022-10-04T20:56:49.918Z,24.30
2022-10-04T20:59:18.212Z,24.30
2022-10-04T21:02:05.294Z,24.20
2022-10-04T21:04:34.698Z,24.20
2022-10-04T21:07:04.954Z,24.20
2022-10-04T21:09:33.831Z,24.20
2022-10-04T21:12:01.918Z,24.20
2022-10-04T21:14:31.569Z,24.20
2022-10-04T21:17:18.717Z,24.20
2022-10-04T21:19:46.326Z,24.20
2022-10-04T21:22:33.596Z,24.10
2022-10-04T21:25:02.421Z,24.10
2022-10-04T21:27:37.541Z,24.10
2022-10-04T21:30:13.223Z,24.00
2022-10-04T21:32:40.813Z,24.10
2022-10-04T21:35:08.937Z,24.10
2022-10-04T21:37:38.224Z,24.10
2022-10-04T21:40:06.794Z,24.10
2022-10-04T21:42:34.339Z,24.10
2022-10-04T21:45:02.656Z,24.10
2022-10-04T21:47:30.288Z,24.10
2022-10-04T21:49:58.592Z,24.10
2022-10-04T21:52:26.951Z,24.10
2022-10-04T21:54:55.350Z,24.10
2022-10-04T21:57:25.118Z,24.10
2022-10-04T21:59:52.996Z,24.10
2022-10-04T22:02:20.556Z,24.00
2022-10-04T22:04:48.172Z,24.00
2022-10-04T22:07:16.440Z,24.00
2022-10-04T22:09:44.717Z,24.00
2022-10-04T22:12:12.242Z,24.00
2022-10-04T22:14:40.090Z,24.10
2022-10-04T22:17:08.341Z,24.10
2022-10-04T22:19:36.729Z,24.00
2022-10-04T22:22:05.087Z,24.00
2022-10-04T22:24:39.482Z,24.00
2022-10-04T22:27:17.182Z,24.00
2022-10-04T22:29:44.862Z,24.00
2022-10-04T22:32:24.029Z,24.00
2022-10-04T22:34:53.034Z,24.00
2022-10-04T22:37:25.184Z,24.00
2022-10-04T22:39:53.238Z,24.00
2022-10-04T22:42:29.500Z,24.00
2022-10-04T22:44:58.175Z,24.00
2022-10-04T22:47:26.599Z,23.90
2022-10-04T22:49:54.630Z,23.90
2022-10-04T22:52:24.537Z,23.90
2022-10-04T22:54:55.750Z,23.90
2022-10-04T22:57:25.578Z,24.00
2022-10-04T22:59:53.151Z,24.00
2022-10-04T23:02:25.288Z,24.00
2022-10-04T23:04:55.373Z,24.00
2022-10-04T23:07:23.748Z,24.00
2022-10-04T23:09:52.019Z,24.00
2022-10-04T23:12:19.697Z,24.00
2022-10-04T23:14:47.294Z,24.00
2022-10-04T23:17:27.024Z,24.00
2022-10-04T23:19:57.518Z,24.10
2022-10-04T23:22:27.854Z,24.10
2022-10-04T23:24:56.021Z,24.10
2022-10-04T23:27:24.060Z,24.10
2022-10-04T23:29:55.642Z,24.10
2022-10-04T23:32:23.097Z,24.10
2022-10-04T23:34:55.714Z,24.10
2022-10-04T23:37:26.880Z,24.10
2022-10-04T23:39:55.338Z,24.20
2022-10-04T23:42:29.384Z,24.20
2022-10-04T23:45:00.728Z,24.20
2022-10-04T23:47:33.384Z,24.30
2022-10-04T23:50:02.468Z,24.30
2022-10-04T23:52:34.534Z,24.30
2022-10-04T23:55:02.888Z,24.30
2022-10-04T23:57:32.208Z,24.40
